sensor_id;sensor_type;location;lat;lon;timestamp;pressure;altitude;pressure_sealevel;temperature;humidity
72423;BME280;60413;55.658;37.498;2022-12-10T00:01:37;98787.50;;;-4.00;100.00
72423;BME280;60413;55.658;37.498;2022-12-10T00:04:06;98779.34;;;-3.95;100.00
72423;BME280;60413;55.658;37.498;2022-12-10T00:06:34;98769.50;;;-4.00;100.00
72423;BME280;60413;55.658;37.498;2022-12-10T00:09:12;98773.38;;;-3.96;100.00
72423;BME280;60413;55.658;37.498;2022-12-10T00:11:39;98794.03;;;-3.87;100.00
72423;BME280;60413;55.658;37.498;2022-12-10T00:14:06;98784.22;;;-3.84;100.00
72423;BME280;60413;55.658;37.498;2022-12-10T00:16:35;98779.22;;;-3.85;100.00
72423;BME280;60413;55.658;37.498;2022-12-10T00:19:02;98762.25;;;-3.96;100.00
72423;BME280;60413;55.658;37.498;2022-12-10T00:21:33;98761.75;;;-4.00;100.00
72423;BME280;60413;55.658;37.498;2022-12-10T00:24:01;98796.16;;;-3.75;100.00
72423;BME280;60413;55.658;37.498;2022-12-10T00:26:29;98804.00;;;-3.50;100.00
72423;BME280;60413;55.658;37.498;2022-12-10T00:29:04;98789.63;;;-3.61;100.00
72423;BME280;60413;55.658;37.498;2022-12-10T00:31:33;98742.16;;;-4.01;100.00
72423;BME280;60413;55.658;37.498;2022-12-10T00:34:02;98771.16;;;-3.91;100.00
72423;BME280;60413;55.658;37.498;2022-12-10T00:36:33;98739.00;;;-4.21;100.00
72423;BME280;60413;55.658;37.498;2022-12-10T00:39:01;98795.31;;;-3.83;100.00
72423;BME280;60413;55.658;37.498;2022-12-10T00:41:30;98734.63;;;-4.20;100.00
72423;BME280;60413;55.658;37.498;2022-12-10T00:43:57;98772.75;;;-3.89;100.00
72423;BME280;60413;55.658;37.498;2022-12-10T00:46:23;98771.66;;;-3.87;100.00
72423;BME280;60413;55.658;37.498;2022-12-10T00:48:49;98757.97;;;-3.87;100.00
72423;BME280;60413;55.658;37.498;2022-12-10T00:51:21;98798.94;;;-3.68;100.00
72423;BME280;60413;55.658;37.498;2022-12-10T00:53:49;98721.31;;;-4.16;100.00
72423;BME280;60413;55.658;37.498;2022-12-10T00:56:18;98761.25;;;-3.77;100.00
72423;BME280;60413;55.658;37.498;2022-12-10T00:58:47;98766.03;;;-3.82;100.00
72423;BME280;60413;55.658;37.498;2022-12-10T01:03:42;98731.84;;;-4.01;100.00
72423;BME280;60413;55.658;37.498;2022-12-10T01:08:40;98731.06;;;-3.93;100.00
72423;BME280;60413;55.658;37.498;2022-12-10T01:11:07;98716.41;;;-4.01;100.00
72423;BME280;60413;55.658;37.498;2022-12-10T01:13:34;98753.34;;;-3.76;100.00
72423;BME280;60413;55.658;37.498;2022-12-10T01:16:04;98738.41;;;-3.72;100.00
72423;BME280;60413;55.658;37.498;2022-12-10T01:18:31;98744.84;;;-3.68;100.00
72423;BME280;60413;55.658;37.498;2022-12-10T01:21:07;98711.78;;;-3.89;100.00
72423;BME280;60413;55.658;37.498;2022-12-10T01:23:36;98733.88;;;-3.78;100.00
72423;BME280;60413;55.658;37.498;2022-12-10T01:26:07;98728.22;;;-3.82;100.00
72423;BME280;60413;55.658;37.498;2022-12-10T01:28:37;98730.41;;;-3.61;100.00
72423;BME280;60413;55.658;37.498;2022-12-10T01:31:22;98722.13;;;-3.73;100.00
72423;BME280;60413;55.658;37.498;2022-12-10T01:33:49;98710.66;;;-3.86;100.00
72423;BME280;60413;55.658;37.498;2022-12-10T01:36:22;98722.28;;;-3.82;100.00
72423;BME280;60413;55.658;37.498;2022-12-10T01:38:49;98681.81;;;-3.98;100.00
72423;BME280;60413;55.658;37.498;2022-12-10T01:41:24;98698.75;;;-3.79;100.00
72423;BME280;60413;55.658;37.498;2022-12-10T01:46:24;98752.47;;;-3.50;100.00
72423;BME280;60413;55.658;37.498;2022-12-10T01:48:53;98701.16;;;-3.86;100.00
72423;BME280;60413;55.658;37.498;2022-12-10T01:51:19;98710.22;;;-3.74;100.00
72423;BME280;60413;55.658;37.498;2022-12-10T01:53:46;98712.31;;;-3.77;100.00
72423;BME280;60413;55.658;37.498;2022-12-10T01:56:15;98706.00;;;-3.83;100.00
72423;BME280;60413;55.658;37.498;2022-12-10T01:58:42;98711.47;;;-3.78;100.00
72423;BME280;60413;55.658;37.498;2022-12-10T02:01:16;98769.22;;;-3.46;100.00
72423;BME280;60413;55.658;37.498;2022-12-10T02:06:44;98750.88;;;-3.43;100.00
72423;BME280;60413;55.658;37.498;2022-12-10T02:17:45;98742.97;;;-3.49;100.00
72423;BME280;60413;55.658;37.498;2022-12-10T02:20:19;98724.59;;;-3.55;100.00
72423;BME280;60413;55.658;37.498;2022-12-10T02:22:51;98718.16;;;-3.59;100.00
72423;BME280;60413;55.658;37.498;2022-12-10T02:29:17;98741.59;;;-3.27;100.00
72423;BME280;60413;55.658;37.498;2022-12-10T02:31:52;98743.97;;;-3.26;100.00
72423;BME280;60413;55.658;37.498;2022-12-10T02:34:20;98747.53;;;-3.35;100.00
72423;BME280;60413;55.658;37.498;2022-12-10T02:36:49;98729.94;;;-3.48;100.00
72423;BME280;60413;55.658;37.498;2022-12-10T02:39:20;98716.06;;;-3.55;100.00
72423;BME280;60413;55.658;37.498;2022-12-10T02:41:55;98677.69;;;-3.75;100.00
72423;BME280;60413;55.658;37.498;2022-12-10T02:44:24;98686.72;;;-3.79;100.00
72423;BME280;60413;55.658;37.498;2022-12-10T02:46:55;98692.03;;;-3.72;100.00
72423;BME280;60413;55.658;37.498;2022-12-10T02:49:26;98710.91;;;-3.63;100.00
72423;BME280;60413;55.658;37.498;2022-12-10T02:51:57;98740.91;;;-3.38;100.00
72423;BME280;60413;55.658;37.498;2022-12-10T02:54:39;98697.88;;;-3.62;100.00
72423;BME280;60413;55.658;37.498;2022-12-10T03:00:17;98664.38;;;-3.70;100.00
72423;BME280;60413;55.658;37.498;2022-12-10T03:09:05;98700.63;;;-3.47;100.00
72423;BME280;60413;55.658;37.498;2022-12-10T03:11:33;98697.91;;;-3.45;100.00
72423;BME280;60413;55.658;37.498;2022-12-10T03:14:25;98695.31;;;-3.54;100.00
72423;BME280;60413;55.658;37.498;2022-12-10T03:16:56;98670.00;;;-3.66;100.00
72423;BME280;60413;55.658;37.498;2022-12-10T03:19:34;98686.78;;;-3.54;100.00
72423;BME280;60413;55.658;37.498;2022-12-10T03:22:03;98679.03;;;-3.62;100.00
72423;BME280;60413;55.658;37.498;2022-12-10T03:24:30;98726.78;;;-3.25;100.00
72423;BME280;60413;55.658;37.498;2022-12-10T03:26:58;98696.91;;;-3.44;100.00
72423;BME280;60413;55.658;37.498;2022-12-10T03:29:29;98742.88;;;-3.15;100.00
72423;BME280;60413;55.658;37.498;2022-12-10T03:31:58;98710.81;;;-3.37;100.00
72423;BME280;60413;55.658;37.498;2022-12-10T03:34:25;98736.59;;;-3.21;100.00
72423;BME280;60413;55.658;37.498;2022-12-10T03:36:52;98724.34;;;-3.27;100.00
72423;BME280;60413;55.658;37.498;2022-12-10T03:39:19;98688.19;;;-3.60;100.00
72423;BME280;60413;55.658;37.498;2022-12-10T03:41:45;98665.16;;;-3.69;100.00
72423;BME280;60413;55.658;37.498;2022-12-10T03:44:11;98670.63;;;-3.64;100.00
72423;BME280;60413;55.658;37.498;2022-12-10T03:46:38;98701.44;;;-3.46;100.00
72423;BME280;60413;55.658;37.498;2022-12-10T03:49:04;98690.00;;;-3.52;100.00
72423;BME280;60413;55.658;37.498;2022-12-10T03:51:31;98684.69;;;-3.50;100.00
72423;BME280;60413;55.658;37.498;2022-12-10T03:54:04;98683.69;;;-3.58;100.00
72423;BME280;60413;55.658;37.498;2022-12-10T03:56:30;98729.97;;;-3.31;100.00
72423;BME280;60413;55.658;37.498;2022-12-10T03:58:57;98741.25;;;-3.24;100.00
72423;BME280;60413;55.658;37.498;2022-12-10T04:01:23;98709.66;;;-3.43;100.00
72423;BME280;60413;55.658;37.498;2022-12-10T04:03:49;98725.59;;;-3.31;100.00
72423;BME280;60413;55.658;37.498;2022-12-10T04:06:19;98710.94;;;-3.47;100.00
72423;BME280;60413;55.658;37.498;2022-12-10T04:08:48;98727.06;;;-3.37;100.00
72423;BME280;60413;55.658;37.498;2022-12-10T04:11:15;98651.16;;;-3.75;100.00
72423;BME280;60413;55.658;37.498;2022-12-10T04:13:42;98709.16;;;-3.46;100.00
72423;BME280;60413;55.658;37.498;2022-12-10T04:16:27;98729.97;;;-3.31;100.00
72423;BME280;60413;55.658;37.498;2022-12-10T04:18:59;98669.03;;;-3.74;100.00
72423;BME280;60413;55.658;37.498;2022-12-10T04:21:26;98689.50;;;-3.56;100.00
72423;BME280;60413;55.658;37.498;2022-12-10T04:24:13;98726.56;;;-3.40;100.00
72423;BME280;60413;55.658;37.498;2022-12-10T04:27:00;98704.00;;;-3.46;100.00
72423;BME280;60413;55.658;37.498;2022-12-10T04:29:29;98716.28;;;-3.40;100.00
72423;BME280;60413;55.658;37.498;2022-12-10T04:31:56;98692.72;;;-3.62;100.00
72423;BME280;60413;55.658;37.498;2022-12-10T04:34:25;98703.69;;;-3.43;100.00
72423;BME280;60413;55.658;37.498;2022-12-10T04:36:52;98698.53;;;-3.43;100.00
72423;BME280;60413;55.658;37.498;2022-12-10T04:39:18;98700.81;;;-3.40;100.00
72423;BME280;60413;55.658;37.498;2022-12-10T04:41:46;98695.34;;;-3.37;100.00
72423;BME280;60413;55.658;37.498;2022-12-10T04:44:13;98677.94;;;-3.43;100.00
72423;BME280;60413;55.658;37.498;2022-12-10T04:46:39;98669.56;;;-3.45;100.00
72423;BME280;60413;55.658;37.498;2022-12-10T04:49:06;98730.16;;;-3.08;100.00
72423;BME280;60413;55.658;37.498;2022-12-10T04:51:33;98698.09;;;-3.22;100.00
72423;BME280;60413;55.658;37.498;2022-12-10T04:54:00;98723.38;;;-3.09;100.00
72423;BME280;60413;55.658;37.498;2022-12-10T04:56:32;98650.22;;;-3.49;100.00
72423;BME280;60413;55.658;37.498;2022-12-10T04:59:02;98706.63;;;-3.13;100.00
72423;BME280;60413;55.658;37.498;2022-12-10T05:01:29;98675.69;;;-3.30;100.00
72423;BME280;60413;55.658;37.498;2022-12-10T05:03:59;98674.72;;;-3.37;100.00
72423;BME280;60413;55.658;37.498;2022-12-10T05:06:26;98692.59;;;-3.19;100.00
72423;BME280;60413;55.658;37.498;2022-12-10T05:08:53;98683.44;;;-3.13;100.00
72423;BME280;60413;55.658;37.498;2022-12-10T05:11:22;98661.03;;;-3.29;100.00
72423;BME280;60413;55.658;37.498;2022-12-10T05:13:49;98660.06;;;-3.37;100.00
72423;BME280;60413;55.658;37.498;2022-12-10T05:16:18;98713.41;;;-3.04;100.00
72423;BME280;60413;55.658;37.498;2022-12-10T05:18:48;98683.75;;;-3.25;100.00
72423;BME280;60413;55.658;37.498;2022-12-10T05:21:17;98661.69;;;-3.36;100.00
72423;BME280;60413;55.658;37.498;2022-12-10T05:23:50;98695.38;;;-3.21;100.00
72423;BME280;60413;55.658;37.498;2022-12-10T05:26:21;98721.81;;;-3.02;100.00
72423;BME280;60413;55.658;37.498;2022-12-10T05:28:57;98706.16;;;-3.17;100.00
72423;BME280;60413;55.658;37.498;2022-12-10T05:31:28;98707.91;;;-3.34;100.00
72423;BME280;60413;55.658;37.498;2022-12-10T05:33:58;98699.34;;;-3.35;100.00
72423;BME280;60413;55.658;37.498;2022-12-10T05:36:39;98691.47;;;-3.33;100.00
72423;BME280;60413;55.658;37.498;2022-12-10T05:39:06;98670.03;;;-3.50;100.00
72423;BME280;60413;55.658;37.498;2022-12-10T05:41:35;98676.81;;;-3.49;100.00
72423;BME280;60413;55.658;37.498;2022-12-10T05:44:05;98683.75;;;-3.33;100.00
72423;BME280;60413;55.658;37.498;2022-12-10T05:46:34;98711.47;;;-3.19;100.00
72423;BME280;60413;55.658;37.498;2022-12-10T05:49:06;98685.03;;;-3.37;100.00
72423;BME280;60413;55.658;37.498;2022-12-10T05:51:42;98671.31;;;-3.38;100.00
72423;BME280;60413;55.658;37.498;2022-12-10T05:54:11;98668.91;;;-3.31;100.00
72423;BME280;60413;55.658;37.498;2022-12-10T05:56:43;98730.03;;;-2.99;100.00
72423;BME280;60413;55.658;37.498;2022-12-10T05:59:17;98698.28;;;-3.15;100.00
72423;BME280;60413;55.658;37.498;2022-12-10T06:01:55;98699.53;;;-3.11;100.00
72423;BME280;60413;55.658;37.498;2022-12-10T06:04:25;98676.66;;;-3.14;100.00
72423;BME280;60413;55.658;37.498;2022-12-10T06:06:57;98714.56;;;-2.90;100.00
72423;BME280;60413;55.658;37.498;2022-12-10T06:09:23;98692.13;;;-2.98;100.00
72423;BME280;60413;55.658;37.498;2022-12-10T06:11:49;98700.81;;;-2.99;100.00
72423;BME280;60413;55.658;37.498;2022-12-10T06:14:19;98716.16;;;-2.81;100.00
72423;BME280;60413;55.658;37.498;2022-12-10T06:16:56;98658.13;;;-3.18;100.00
72423;BME280;60413;55.658;37.498;2022-12-10T06:19:22;98681.66;;;-3.05;100.00
72423;BME280;60413;55.658;37.498;2022-12-10T06:21:54;98675.88;;;-3.07;100.00
72423;BME280;60413;55.658;37.498;2022-12-10T06:24:20;98678.28;;;-3.05;100.00
72423;BME280;60413;55.658;37.498;2022-12-10T06:26:47;98672.00;;;-3.11;100.00
72423;BME280;60413;55.658;37.498;2022-12-10T06:29:16;98683.75;;;-3.00;100.00
72423;BME280;60413;55.658;37.498;2022-12-10T06:31:42;98668.28;;;-3.08;100.00
72423;BME280;60413;55.658;37.498;2022-12-10T06:34:08;98681.81;;;-2.98;100.00
72423;BME280;60413;55.658;37.498;2022-12-10T06:36:38;98667.97;;;-3.05;100.00
72423;BME280;60413;55.658;37.498;2022-12-10T06:39:04;98679.56;;;-3.01;100.00
72423;BME280;60413;55.658;37.498;2022-12-10T06:41:30;98667.81;;;-3.04;100.00
72423;BME280;60413;55.658;37.498;2022-12-10T06:43:57;98705.66;;;-2.71;100.00
72423;BME280;60413;55.658;37.498;2022-12-10T06:46:26;98708.56;;;-2.74;100.00
72423;BME280;60413;55.658;37.498;2022-12-10T06:48:54;98705.66;;;-2.71;100.00
72423;BME280;60413;55.658;37.498;2022-12-10T06:51:22;98683.44;;;-2.81;100.00
72423;BME280;60413;55.658;37.498;2022-12-10T06:53:49;98662.00;;;-2.98;100.00
72423;BME280;60413;55.658;37.498;2022-12-10T06:56:18;98648.94;;;-3.04;100.00
72423;BME280;60413;55.658;37.498;2022-12-10T06:58:44;98654.94;;;-3.04;100.00
72423;BME280;60413;55.658;37.498;2022-12-10T07:01:16;98660.25;;;-2.97;100.00
72423;BME280;60413;55.658;37.498;2022-12-10T07:03:43;98700.34;;;-2.78;100.00
72423;BME280;60413;55.658;37.498;2022-12-10T07:06:10;98693.09;;;-2.74;100.00
72423;BME280;60413;55.658;37.498;2022-12-10T07:08:36;98667.78;;;-2.79;100.00
72423;BME280;60413;55.658;37.498;2022-12-10T07:11:07;98646.03;;;-2.93;100.00
72423;BME280;60413;55.658;37.498;2022-12-10T07:13:34;98690.81;;;-2.69;100.00
72423;BME280;60413;55.658;37.498;2022-12-10T07:16:03;98691.81;;;-2.70;100.00
72423;BME280;60413;55.658;37.498;2022-12-10T07:18:32;98629.31;;;-3.05;100.00
72423;BME280;60413;55.658;37.498;2022-12-10T07:20:58;98671.81;;;-2.85;100.00
72423;BME280;60413;55.658;37.498;2022-12-10T07:23:24;98672.00;;;-2.86;100.00
72423;BME280;60413;55.658;37.498;2022-12-10T07:25:54;98643.63;;;-2.94;100.00
72423;BME280;60413;55.658;37.498;2022-12-10T07:28:23;98674.41;;;-2.76;100.00
72423;BME280;60413;55.658;37.498;2022-12-10T07:30:49;98698.53;;;-2.53;100.00
72423;BME280;60413;55.658;37.498;2022-12-10T07:33:18;98670.19;;;-2.77;100.00
72423;BME280;60413;55.658;37.498;2022-12-10T07:35:44;98703.53;;;-2.51;100.00
72423;BME280;60413;55.658;37.498;2022-12-10T07:38:10;98653.13;;;-2.78;100.00
72423;BME280;60413;55.658;37.498;2022-12-10T07:40:39;98649.25;;;-2.74;100.00
72423;BME280;60413;55.658;37.498;2022-12-10T07:43:05;98642.13;;;-2.64;100.00
72423;BME280;60413;55.658;37.498;2022-12-10T07:45:32;98636.63;;;-2.61;100.00
72423;BME280;60413;55.658;37.498;2022-12-10T07:47:58;98674.66;;;-2.38;100.00
72423;BME280;60413;55.658;37.498;2022-12-10T07:50:24;98671.72;;;-2.27;100.00
72423;BME280;60413;55.658;37.498;2022-12-10T07:52:50;98617.41;;;-2.42;100.00
72423;BME280;60413;55.658;37.498;2022-12-10T07:55:16;98666.47;;;-2.11;100.00
72423;BME280;60413;55.658;37.498;2022-12-10T07:57:42;98637.81;;;-2.24;100.00
72423;BME280;60413;55.658;37.498;2022-12-10T08:00:09;98646.34;;;-2.15;100.00
72423;BME280;60413;55.658;37.498;2022-12-10T08:02:37;98637.19;;;-2.26;100.00
72423;BME280;60413;55.658;37.498;2022-12-10T08:05:04;98672.47;;;-2.10;100.00
72423;BME280;60413;55.658;37.498;2022-12-10T08:11:19;98707.28;;;-1.98;100.00
72423;BME280;60413;55.658;37.498;2022-12-10T08:13:48;98628.34;;;-2.32;100.00
72423;BME280;60413;55.658;37.498;2022-12-10T08:16:35;98659.56;;;-2.10;100.00
72423;BME280;60413;55.658;37.498;2022-12-10T08:19:01;98690.75;;;-1.80;100.00
72423;BME280;60413;55.658;37.498;2022-12-10T08:21:29;98646.50;;;-2.17;100.00
72423;BME280;60413;55.658;37.498;2022-12-10T08:24:01;98640.38;;;-2.16;100.00
72423;BME280;60413;55.658;37.498;2022-12-10T08:26:32;98641.03;;;-2.14;100.00
72423;BME280;60413;55.658;37.498;2022-12-10T08:28:59;98640.91;;;-1.97;100.00
72423;BME280;60413;55.658;37.498;2022-12-10T08:31:27;98674.72;;;-1.76;100.00
72423;BME280;60413;55.658;37.498;2022-12-10T08:33:54;98655.72;;;-1.83;100.00
72423;BME280;60413;55.658;37.498;2022-12-10T08:36:33;98686.59;;;-1.58;100.00
72423;BME280;60413;55.658;37.498;2022-12-10T08:39:14;98680.97;;;-1.62;100.00
72423;BME280;60413;55.658;37.498;2022-12-10T08:41:50;98642.22;;;-1.93;100.00
72423;BME280;60413;55.658;37.498;2022-12-10T08:44:16;98641.41;;;-1.94;100.00
72423;BME280;60413;55.658;37.498;2022-12-10T08:46:42;98678.41;;;-1.70;100.00
72423;BME280;60413;55.658;37.498;2022-12-10T08:49:08;98656.53;;;-1.91;100.00
72423;BME280;60413;55.658;37.498;2022-12-10T08:51:37;98635.28;;;-2.01;100.00
72423;BME280;60413;55.658;37.498;2022-12-10T08:54:05;98629.19;;;-2.08;100.00
72423;BME280;60413;55.658;37.498;2022-12-10T08:56:31;98670.50;;;-1.69;100.00
72423;BME280;60413;55.658;37.498;2022-12-10T08:59:11;98677.72;;;-1.64;100.00
72423;BME280;60413;55.658;37.498;2022-12-10T09:01:38;98628.44;;;-1.86;100.00
72423;BME280;60413;55.658;37.498;2022-12-10T09:04:08;98612.56;;;-2.06;100.00
72423;BME280;60413;55.658;37.498;2022-12-10T09:06:37;98677.84;;;-1.57;100.00
72423;BME280;60413;55.658;37.498;2022-12-10T09:09:04;98613.50;;;-1.98;100.00
72423;BME280;60413;55.658;37.498;2022-12-10T09:11:33;98644.25;;;-1.80;100.00
72423;BME280;60413;55.658;37.498;2022-12-10T09:14:01;98684.63;;;-1.56;100.00
72423;BME280;60413;55.658;37.498;2022-12-10T09:16:33;98665.63;;;-1.63;100.00
72423;BME280;60413;55.658;37.498;2022-12-10T09:19:00;98674.47;;;-1.58;100.00
72423;BME280;60413;55.658;37.498;2022-12-10T09:21:26;98634.47;;;-1.93;100.00
72423;BME280;60413;55.658;37.498;2022-12-10T09:24:04;98666.66;;;-1.81;100.00
72423;BME280;60413;55.658;37.498;2022-12-10T09:26:30;98624.84;;;-2.08;100.00
72423;BME280;60413;55.658;37.498;2022-12-10T09:28:56;98646.09;;;-1.97;100.00
72423;BME280;60413;55.658;37.498;2022-12-10T09:31:23;98615.50;;;-2.09;100.00
72423;BME280;60413;55.658;37.498;2022-12-10T09:33:51;98646.19;;;-1.82;100.00
72423;BME280;60413;55.658;37.498;2022-12-10T09:36:19;98656.00;;;-1.78;100.00
72423;BME280;60413;55.658;37.498;2022-12-10T09:38:49;98645.53;;;-1.84;100.00
72423;BME280;60413;55.658;37.498;2022-12-10T09:44:07;98667.88;;;-1.60;100.00
72423;BME280;60413;55.658;37.498;2022-12-10T09:46:43;98663.38;;;-1.66;100.00
72423;BME280;60413;55.658;37.498;2022-12-10T09:49:30;98660.00;;;-1.67;100.00
72423;BME280;60413;55.658;37.498;2022-12-10T09:52:02;98628.63;;;-1.87;100.00
72423;BME280;60413;55.658;37.498;2022-12-10T09:54:44;98663.22;;;-1.65;100.00
72423;BME280;60413;55.658;37.498;2022-12-10T09:57:20;98636.19;;;-1.86;100.00
72423;BME280;60413;55.658;37.498;2022-12-10T09:59:49;98632.50;;;-1.91;100.00
72423;BME280;60413;55.658;37.498;2022-12-10T10:02:20;98664.63;;;-1.62;100.00
72423;BME280;60413;55.658;37.498;2022-12-10T10:04:49;98626.03;;;-1.87;100.00
72423;BME280;60413;55.658;37.498;2022-12-10T10:07:23;98650.13;;;-1.63;100.00
72423;BME280;60413;55.658;37.498;2022-12-10T10:09:55;98638.25;;;-1.81;100.00
72423;BME280;60413;55.658;37.498;2022-12-10T10:12:22;98582.44;;;-2.13;100.00
72423;BME280;60413;55.658;37.498;2022-12-10T10:15:09;98630.88;;;-1.92;100.00
72423;BME280;60413;55.658;37.498;2022-12-10T10:17:38;98604.91;;;-2.22;100.00
72423;BME280;60413;55.658;37.498;2022-12-10T10:20:13;98626.78;;;-2.10;100.00
72423;BME280;60413;55.658;37.498;2022-12-10T10:22:42;98600.84;;;-2.16;100.00
72423;BME280;60413;55.658;37.498;2022-12-10T10:25:16;98591.22;;;-2.31;100.00
72423;BME280;60413;55.658;37.498;2022-12-10T10:27:43;98576.25;;;-2.35;100.00
72423;BME280;60413;55.658;37.498;2022-12-10T10:30:18;98607.25;;;-2.12;100.00
72423;BME280;60413;55.658;37.498;2022-12-10T10:32:49;98631.91;;;-2.01;100.00
72423;BME280;60413;55.658;37.498;2022-12-10T10:35:29;98634.78;;;-1.96;100.00
72423;BME280;60413;55.658;37.498;2022-12-10T10:38:08;98622.47;;;-1.86;100.00
72423;BME280;60413;55.658;37.498;2022-12-10T10:41:02;98634.22;;;-1.75;100.00
72423;BME280;60413;55.658;37.498;2022-12-10T10:43:43;98579.19;;;-2.07;100.00
72423;BME280;60413;55.658;37.498;2022-12-10T10:46:16;98616.50;;;-1.87;100.00
72423;BME280;60413;55.658;37.498;2022-12-10T10:48:43;98568.78;;;-2.22;100.00
72423;BME280;60413;55.658;37.498;2022-12-10T10:58:35;98536.69;;;-2.28;100.00
72423;BME280;60413;55.658;37.498;2022-12-10T11:01:11;98543.91;;;-2.23;100.00
72423;BME280;60413;55.658;37.498;2022-12-10T11:03:49;98551.28;;;-2.12;100.00
72423;BME280;60413;55.658;37.498;2022-12-10T11:06:18;98565.81;;;-2.19;100.00
72423;BME280;60413;55.658;37.498;2022-12-10T11:08:46;98532.22;;;-2.34;100.00
72423;BME280;60413;55.658;37.498;2022-12-10T11:11:22;98542.97;;;-2.22;100.00
72423;BME280;60413;55.658;37.498;2022-12-10T11:13:51;98536.56;;;-2.34;100.00
72423;BME280;60413;55.658;37.498;2022-12-10T11:16:21;98541.22;;;-2.30;100.00
72423;BME280;60413;55.658;37.498;2022-12-10T11:19:02;98515.66;;;-2.48;100.00
72423;BME280;60413;55.658;37.498;2022-12-10T11:21:33;98545.53;;;-2.22;100.00
72423;BME280;60413;55.658;37.498;2022-12-10T11:24:10;98516.94;;;-2.44;100.00
72423;BME280;60413;55.658;37.498;2022-12-10T11:27:00;98536.22;;;-2.31;100.00
72423;BME280;60413;55.658;37.498;2022-12-10T11:32:52;98561.00;;;-2.14;100.00
72423;BME280;60413;55.658;37.498;2022-12-10T11:35:55;98558.16;;;-2.04;100.00
72423;BME280;60413;55.658;37.498;2022-12-10T11:38:29;98544.84;;;-2.16;100.00
72423;BME280;60413;55.658;37.498;2022-12-10T11:46:34;98522.94;;;-2.20;100.00
72423;BME280;60413;55.658;37.498;2022-12-10T11:51:42;98539.19;;;-1.88;100.00
72423;BME280;60413;55.658;37.498;2022-12-10T11:54:18;98509.59;;;-2.00;100.00
72423;BME280;60413;55.658;37.498;2022-12-10T12:02:36;98510.09;;;-2.05;100.00
72423;BME280;60413;55.658;37.498;2022-12-10T12:05:36;98505.28;;;-2.08;100.00
72423;BME280;60413;55.658;37.498;2022-12-10T12:11:00;98501.72;;;-2.07;100.00
72423;BME280;60413;55.658;37.498;2022-12-10T12:13:55;98539.75;;;-1.78;100.00
72423;BME280;60413;55.658;37.498;2022-12-10T12:16:40;98483.22;;;-2.19;100.00
72423;BME280;60413;55.658;37.498;2022-12-10T12:19:16;98508.09;;;-1.95;100.00
72423;BME280;60413;55.658;37.498;2022-12-10T12:21:46;98512.63;;;-1.97;100.00
72423;BME280;60413;55.658;37.498;2022-12-10T12:24:21;98470.78;;;-2.15;100.00
72423;BME280;60413;55.658;37.498;2022-12-10T12:26:55;98473.22;;;-2.14;100.00
72423;BME280;60413;55.658;37.498;2022-12-10T12:29:37;98531.84;;;-1.76;100.00
72423;BME280;60413;55.658;37.498;2022-12-10T12:32:17;98531.22;;;-1.78;100.00
72423;BME280;60413;55.658;37.498;2022-12-10T12:35:02;98513.69;;;-1.91;100.00
72423;BME280;60413;55.658;37.498;2022-12-10T12:37:40;98501.59;;;-1.91;100.00
72423;BME280;60413;55.658;37.498;2022-12-10T12:40:31;98527.81;;;-1.79;100.00
72423;BME280;60413;55.658;37.498;2022-12-10T12:43:39;98524.88;;;-1.76;100.00
72423;BME280;60413;55.658;37.498;2022-12-10T12:46:16;98499.81;;;-1.90;100.00
72423;BME280;60413;55.658;37.498;2022-12-10T12:48:48;98529.25;;;-1.76;100.00
72423;BME280;60413;55.658;37.498;2022-12-10T12:51:32;98478.94;;;-2.03;100.00
72423;BME280;60413;55.658;37.498;2022-12-10T12:54:01;98495.97;;;-1.94;100.00
72423;BME280;60413;55.658;37.498;2022-12-10T13:02:18;98495.16;;;-1.95;100.00
72423;BME280;60413;55.658;37.498;2022-12-10T13:04:50;98524.19;;;-1.70;100.00
72423;BME280;60413;55.658;37.498;2022-12-10T13:09:49;98498.38;;;-1.70;100.00
72423;BME280;60413;55.658;37.498;2022-12-10T13:12:45;98516.31;;;-1.53;100.00
72423;BME280;60413;55.658;37.498;2022-12-10T13:23:33;98508.91;;;-1.56;100.00
72423;BME280;60413;55.658;37.498;2022-12-10T13:26:31;98494.81;;;-1.69;100.00
72423;BME280;60413;55.658;37.498;2022-12-10T13:29:24;98502.03;;;-1.64;100.00
72423;BME280;60413;55.658;37.498;2022-12-10T13:32:03;98512.94;;;-1.54;100.00
72423;BME280;60413;55.658;37.498;2022-12-10T13:34:39;98517.72;;;-1.51;100.00
72423;BME280;60413;55.658;37.498;2022-12-10T13:37:18;98474.50;;;-1.72;100.00
72423;BME280;60413;55.658;37.498;2022-12-10T13:40:03;98463.44;;;-1.80;100.00
72423;BME280;60413;55.658;37.498;2022-12-10T13:42:39;98492.06;;;-1.67;100.00
72423;BME280;60413;55.658;37.498;2022-12-10T13:45:31;98507.78;;;-1.54;100.00
72423;BME280;60413;55.658;37.498;2022-12-10T13:50:49;98501.88;;;-1.47;100.00
72423;BME280;60413;55.658;37.498;2022-12-10T13:56:29;98479.25;;;-1.60;100.00
72423;BME280;60413;55.658;37.498;2022-12-10T14:02:33;98458.75;;;-1.62;100.00
72423;BME280;60413;55.658;37.498;2022-12-10T14:07:47;98470.31;;;-1.58;100.00
72423;BME280;60413;55.658;37.498;2022-12-10T14:10:20;98447.66;;;-1.71;100.00
72423;BME280;60413;55.658;37.498;2022-12-10T14:12:53;98432.53;;;-1.74;100.00
72423;BME280;60413;55.658;37.498;2022-12-10T14:15:31;98460.78;;;-1.57;100.00
72423;BME280;60413;55.658;37.498;2022-12-10T14:18:04;98450.44;;;-1.57;100.00
72423;BME280;60413;55.658;37.498;2022-12-10T14:20:34;98474.38;;;-1.40;100.00
72423;BME280;60413;55.658;37.498;2022-12-10T14:26:12;98444.94;;;-1.54;100.00
72423;BME280;60413;55.658;37.498;2022-12-10T14:28:45;98398.41;;;-1.69;100.00
72423;BME280;60413;55.658;37.498;2022-12-10T14:31:15;98426.84;;;-1.54;100.00
72423;BME280;60413;55.658;37.498;2022-12-10T14:34:00;98460.28;;;-1.38;100.00
72423;BME280;60413;55.658;37.498;2022-12-10T14:36:30;98417.22;;;-1.60;100.00
72423;BME280;60413;55.658;37.498;2022-12-10T14:38:58;98427.56;;;-1.45;100.00
72423;BME280;60413;55.658;37.498;2022-12-10T14:41:26;98403.31;;;-1.59;100.00